Time,TemperatureF,DewpointF,PressureIn,WindDirection,WindDirectionDegrees,WindSpeedMPH,WindSpeedGustMPH,Humidity,HourlyPrecipIn,Conditions,Clouds,dailyrainin,SoftwareType,DateUTC
2013-12-05 00:01:00,30.4,28.6,29.52,South,180,0.0,8.0,93,0.00,,,0.00,Weather View 32 v70,2013-12-05 05:01:00,
2013-12-05 00:02:00,30.3,28.5,29.52,South,180,0.0,8.0,93,0.00,,,0.00,Weather View 32 v70,2013-12-05 05:02:00,
2013-12-05 00:03:00,30.4,28.6,29.53,South,180,1.0,8.0,93,0.00,,,0.00,Weather View 32 v70,2013-12-05 05:03:00,
2013-12-05 00:08:00,30.2,28.4,29.53,SSW,202,0.0,8.0,93,0.00,,,0.00,Weather View 32 v70,2013-12-05 05:08:00,
2013-12-05 00:13:00,30.2,28.7,29.53,SSW,202,0.0,8.0,94,0.00,,,0.00,Weather View 32 v70,2013-12-05 05:13:00,
2013-12-05 00:18:00,30.3,29.0,29.53,ESE,112,0.0,8.0,95,0.00,,,0.00,Weather View 32 v70,2013-12-05 05:18:00,
2013-12-05 00:23:00,30.4,29.4,29.53,ESE,112,2.0,8.0,96,0.00,,,0.00,Weather View 32 v70,2013-12-05 05:23:00,
2013-12-05 00:28:00,30.9,29.9,29.53,SSE,157,0.0,8.0,96,0.00,,,0.00,Weather View 32 v70,2013-12-05 05:28:00,
2013-12-05 00:33:00,30.8,29.8,29.53,SSW,202,0.0,8.0,96,0.00,,,0.00,Weather View 32 v70,2013-12-05 05:33:00,
2013-12-05 00:38:00,30.7,29.7,29.53,SSE,157,0.0,8.0,96,0.00,,,0.00,Weather View 32 v70,2013-12-05 05:38:00,
2013-12-05 00:43:00,30.4,29.4,29.53,South,180,0.0,8.0,96,0.00,,,0.00,Weather View 32 v70,2013-12-05 05:43:00,
2013-12-05 00:48:00,30.5,29.5,29.53,WNW,292,0.0,7.0,96,0.00,,,0.00,Weather View 32 v70,2013-12-05 05:48:00,
2013-12-05 00:53:00,31.7,30.9,29.53,WNW,292,0.0,7.0,97,0.00,,,0.00,Weather View 32 v70,2013-12-05 05:53:00,
2013-12-05 00:58:00,31.7,30.4,29.53,SSW,202,1.0,7.0,95,0.00,,,0.00,Weather View 32 v70,2013-12-05 05:58:00,
2013-12-05 01:03:00,31.4,30.1,29.52,South,180,0.0,7.0,95,0.00,,,0.00,Weather View 32 v70,2013-12-05 06:03:00,
2013-12-05 01:09:00,31.4,30.1,29.52,ESE,112,1.0,7.0,95,0.00,,,0.00,Weather View 32 v70,2013-12-05 06:09:00,
2013-12-05 01:14:00,31.9,30.6,29.52,SSE,157,0.0,7.0,95,0.00,,,0.00,Weather View 32 v70,2013-12-05 06:14:00,
2013-12-05 01:19:00,31.6,30.1,29.51,SSE,157,0.0,7.0,94,0.00,,,0.00,Weather View 32 v70,2013-12-05 06:19:00,
2013-12-05 01:24:00,31.3,30.0,29.51,SSE,157,1.0,7.0,95,0.00,,,0.00,Weather View 32 v70,2013-12-05 06:24:00,
2013-12-05 01:29:00,31.1,29.8,29.51,South,180,0.0,7.0,95,0.00,,,0.00,Weather View 32 v70,2013-12-05 06:29:00,
2013-12-05 01:34:00,31.0,29.7,29.51,SSE,157,0.0,6.0,95,0.00,,,0.00,Weather View 32 v70,2013-12-05 06:34:00,
2013-12-05 01:39:00,30.9,29.9,29.51,SE,135,0.0,6.0,96,0.00,,,0.00,Weather View 32 v70,2013-12-05 06:39:00,
2013-12-05 01:44:00,31.1,30.1,29.51,SSW,202,0.0,6.0,96,0.00,,,0.00,Weather View 32 v70,2013-12-05 06:44:00,
2013-12-05 01:49:00,31.3,30.8,29.51,South,180,1.0,6.0,98,0.00,,,0.00,Weather View 32 v70,2013-12-05 06:49:00,
2013-12-05 01:54:00,31.6,31.1,29.52,WSW,247,0.0,6.0,98,0.00,,,0.00,Weather View 32 v70,2013-12-05 06:54:00,
2013-12-05 01:59:00,32.0,31.2,29.51,ESE,112,0.0,6.0,97,0.00,,,0.00,Weather View 32 v70,2013-12-05 06:59:00,
2013-12-05 02:04:00,31.9,30.9,29.51,East,90,2.0,6.0,96,0.00,,,0.00,Weather View 32 v70,2013-12-05 07:04:00,
2013-12-05 02:09:00,31.7,30.9,29.51,North,360,0.0,6.0,97,0.00,,,0.00,Weather View 32 v70,2013-12-05 07:09:00,
2013-12-05 02:14:00,31.8,31.0,29.51,SSW,202,0.0,6.0,97,0.00,,,0.00,Weather View 32 v70,2013-12-05 07:14:00,
2013-12-05 02:19:00,32.1,31.6,29.50,ESE,112,1.0,7.0,98,0.00,,,0.00,Weather View 32 v70,2013-12-05 07:19:00,
2013-12-05 02:24:00,34.0,33.0,29.50,SSE,157,5.0,7.0,96,0.00,,,0.00,Weather View 32 v70,2013-12-05 07:24:00,
2013-12-05 02:29:00,34.1,32.0,29.50,SE,135,0.0,7.0,92,0.00,,,0.00,Weather View 32 v70,2013-12-05 07:29:00,
2013-12-05 02:34:00,34.4,32.3,29.49,West,270,2.0,7.0,92,0.00,,,0.00,Weather View 32 v70,2013-12-05 07:34:00,
2013-12-05 02:39:00,34.8,32.4,29.50,ENE,67,0.0,7.0,91,0.00,,,0.00,Weather View 32 v70,2013-12-05 07:39:00,
2013-12-05 02:44:00,34.7,31.8,29.49,NW,315,0.0,7.0,89,0.00,,,0.00,Weather View 32 v70,2013-12-05 07:44:00,
2013-12-05 02:49:00,34.0,31.1,29.50,NNW,337,0.0,7.0,89,0.00,,,0.00,Weather View 32 v70,2013-12-05 07:49:00,
2013-12-05 02:54:00,33.4,30.5,29.49,ESE,112,0.0,7.0,89,0.00,,,0.00,Weather View 32 v70,2013-12-05 07:54:00,
2013-12-05 02:59:00,33.1,30.2,29.49,ESE,112,3.0,7.0,89,0.00,,,0.00,Weather View 32 v70,2013-12-05 07:59:00,
2013-12-05 03:04:00,32.9,30.8,29.49,South,180,0.0,7.0,92,0.00,,,0.00,Weather View 32 v70,2013-12-05 08:04:00,
2013-12-05 03:09:00,33.3,31.2,29.48,SSW,202,0.0,7.0,92,0.00,,,0.00,Weather View 32 v70,2013-12-05 08:09:00,
2013-12-05 03:14:00,33.0,30.7,29.48,NNW,337,0.0,7.0,91,0.00,,,0.00,Weather View 32 v70,2013-12-05 08:14:00,
2013-12-05 03:19:00,32.7,30.6,29.48,NW,315,0.0,7.0,92,0.00,,,0.00,Weather View 32 v70,2013-12-05 08:19:00,
2013-12-05 03:24:00,32.2,30.1,29.48,ESE,112,1.0,7.0,92,0.00,,,0.00,Weather View 32 v70,2013-12-05 08:24:00,
2013-12-05 03:29:00,32.2,30.7,29.47,SSE,157,1.0,7.0,94,0.00,,,0.00,Weather View 32 v70,2013-12-05 08:29:00,
2013-12-05 03:34:00,32.3,31.3,29.47,East,90,0.0,7.0,96,0.00,,,0.00,Weather View 32 v70,2013-12-05 08:34:00,
2013-12-05 03:39:00,32.4,31.4,29.47,SSW,202,2.0,7.0,96,0.00,,,0.00,Weather View 32 v70,2013-12-05 08:39:00,
2013-12-05 03:45:00,34.4,34.1,29.47,SSW,202,0.0,8.0,99,0.00,,,0.00,Weather View 32 v70,2013-12-05 08:45:00,
2013-12-05 03:50:00,36.8,34.4,29.47,South,180,9.0,15.0,91,0.00,,,0.00,Weather View 32 v70,2013-12-05 08:50:00,
2013-12-05 03:55:00,39.0,36.9,29.45,SSE,157,11.0,16.0,92,0.00,,,0.00,Weather View 32 v70,2013-12-05 08:55:00,
2013-12-05 04:00:00,40.3,37.9,29.45,SSE,157,6.0,16.0,91,0.00,,,0.00,Weather View 32 v70,2013-12-05 09:00:00,
2013-12-05 04:05:00,41.1,37.2,29.45,South,180,10.0,20.0,86,0.00,,,0.00,Weather View 32 v70,2013-12-05 09:05:00,
2013-12-05 04:10:00,41.7,36.0,29.45,SSE,157,16.0,20.0,80,0.00,,,0.00,Weather View 32 v70,2013-12-05 09:10:00,
2013-12-05 04:15:00,42.0,35.6,29.44,South,180,5.0,20.0,78,0.00,,,0.00,Weather View 32 v70,2013-12-05 09:15:00,
2013-12-05 04:20:00,42.3,35.3,29.43,SSE,157,12.0,20.0,76,0.00,,,0.00,Weather View 32 v70,2013-12-05 09:20:00,
2013-12-05 04:25:00,42.9,36.2,29.43,SSE,157,13.0,20.0,77,0.00,,,0.00,Weather View 32 v70,2013-12-05 09:25:00,
2013-12-05 04:30:00,43.6,35.2,29.42,SE,135,10.0,20.0,72,0.00,,,0.00,Weather View 32 v70,2013-12-05 09:30:00,
2013-12-05 04:35:00,43.6,36.2,29.43,SSW,202,7.0,20.0,75,0.00,,,0.00,Weather View 32 v70,2013-12-05 09:35:00,
2013-12-05 04:40:00,44.1,37.3,29.44,SSE,157,6.0,20.0,77,0.00,,,0.00,Weather View 32 v70,2013-12-05 09:40:00,
2013-12-05 04:45:00,44.1,36.7,29.44,WSW,247,7.0,20.0,75,0.00,,,0.00,Weather View 32 v70,2013-12-05 09:45:00,
2013-12-05 04:50:00,44.1,36.3,29.44,SW,225,6.0,21.0,74,0.00,,,0.00,Weather View 32 v70,2013-12-05 09:50:00,
2013-12-05 04:55:00,43.9,35.8,29.44,SW,225,11.0,23.0,73,0.00,,,0.00,Weather View 32 v70,2013-12-05 09:55:00,
2013-12-05 05:00:00,43.7,35.6,29.44,SSE,157,15.0,23.0,73,0.00,,,0.00,Weather View 32 v70,2013-12-05 10:00:00,
2013-12-05 05:05:00,43.4,35.3,29.45,SSE,157,10.0,23.0,73,0.00,,,0.00,Weather View 32 v70,2013-12-05 10:05:00,
2013-12-05 05:10:00,43.2,35.1,29.44,SSW,202,15.0,23.0,73,0.00,,,0.00,Weather View 32 v70,2013-12-05 10:10:00,
2013-12-05 05:15:00,43.1,35.0,29.44,South,180,9.0,23.0,73,0.00,,,0.00,Weather View 32 v70,2013-12-05 10:15:00,
2013-12-05 05:20:00,43.1,35.4,29.43,SSE,157,9.0,23.0,74,0.00,,,0.00,Weather View 32 v70,2013-12-05 10:20:00,
2013-12-05 05:25:00,43.3,35.9,29.42,SSW,202,9.0,23.0,75,0.00,,,0.00,Weather View 32 v70,2013-12-05 10:25:00,
2013-12-05 05:30:00,43.4,36.0,29.42,NW,315,0.0,23.0,75,0.00,,,0.00,Weather View 32 v70,2013-12-05 10:30:00,
2013-12-05 05:35:00,43.4,36.3,29.41,SW,225,5.0,23.0,76,0.00,,,0.00,Weather View 32 v70,2013-12-05 10:35:00,
2013-12-05 05:40:00,43.7,37.0,29.42,WSW,247,0.0,23.0,77,0.00,,,0.00,Weather View 32 v70,2013-12-05 10:40:00,
2013-12-05 05:45:00,43.7,36.6,29.42,WSW,247,4.0,23.0,76,0.00,,,0.00,Weather View 32 v70,2013-12-05 10:45:00,
2013-12-05 05:50:00,44.1,37.0,29.42,SW,225,10.0,23.0,76,0.00,,,0.00,Weather View 32 v70,2013-12-05 10:50:00,
2013-12-05 05:55:00,44.3,37.2,29.43,SW,225,9.0,23.0,76,0.00,,,0.00,Weather View 32 v70,2013-12-05 10:55:00,
2013-12-05 06:00:00,44.2,36.1,29.43,WNW,292,0.0,22.0,73,0.00,,,0.00,Weather View 32 v70,2013-12-05 11:00:00,
2013-12-05 06:05:00,43.3,35.9,29.43,WSW,247,10.0,22.0,75,0.00,,,0.00,Weather View 32 v70,2013-12-05 11:05:00,
2013-12-05 06:10:00,43.4,36.7,29.43,West,270,6.0,22.0,77,0.00,,,0.00,Weather View 32 v70,2013-12-05 11:10:00,
2013-12-05 06:15:00,43.7,37.0,29.43,SW,225,6.0,18.0,77,0.00,,,0.00,Weather View 32 v70,2013-12-05 11:15:00,
2013-12-05 06:20:00,43.8,37.1,29.43,SW,225,9.0,18.0,77,0.00,,,0.00,Weather View 32 v70,2013-12-05 11:20:00,
2013-12-05 06:25:00,43.6,36.9,29.42,SSW,202,10.0,18.0,77,0.00,,,0.00,Weather View 32 v70,2013-12-05 11:25:00,
2013-12-05 06:30:00,43.8,37.1,29.43,SSW,202,8.0,18.0,77,0.00,,,0.00,Weather View 32 v70,2013-12-05 11:30:00,
2013-12-05 06:35:00,43.8,37.1,29.43,WSW,247,12.0,18.0,77,0.00,,,0.00,Weather View 32 v70,2013-12-05 11:35:00,
2013-12-05 06:41:00,44.0,37.6,29.43,WSW,247,7.0,20.0,78,0.00,,,0.00,Weather View 32 v70,2013-12-05 11:41:00,
2013-12-05 06:46:00,44.2,37.8,29.43,SSE,157,8.0,20.0,78,0.00,,,0.00,Weather View 32 v70,2013-12-05 11:46:00,
2013-12-05 06:51:00,44.4,38.0,29.43,South,180,13.0,20.0,78,0.00,,,0.00,Weather View 32 v70,2013-12-05 11:51:00,
2013-12-05 06:56:00,44.4,38.0,29.44,SSW,202,8.0,20.0,78,0.00,,,0.00,Weather View 32 v70,2013-12-05 11:56:00,
2013-12-05 07:01:00,44.3,37.9,29.44,SSW,202,7.0,20.0,78,0.00,,,0.00,Weather View 32 v70,2013-12-05 12:01:00,
2013-12-05 07:06:00,43.8,36.7,29.44,WSW,247,7.0,20.0,76,0.00,,,0.00,Weather View 32 v70,2013-12-05 12:06:00,
2013-12-05 07:11:00,43.0,35.3,29.44,SE,135,0.0,20.0,74,0.00,,,0.00,Weather View 32 v70,2013-12-05 12:11:00,
2013-12-05 07:16:00,41.0,34.0,29.45,ESE,112,0.0,20.0,76,0.00,,,0.00,Weather View 32 v70,2013-12-05 12:16:00,
2013-12-05 07:21:00,41.2,36.7,29.44,SSW,202,4.0,20.0,84,0.00,,,0.00,Weather View 32 v70,2013-12-05 12:21:00,
2013-12-05 07:26:00,42.7,37.9,29.43,WSW,247,1.0,20.0,83,0.00,,,0.00,Weather View 32 v70,2013-12-05 12:26:00,
2013-12-05 07:31:00,43.3,38.5,29.43,SSW,202,1.0,20.0,83,0.00,,,0.00,Weather View 32 v70,2013-12-05 12:31:00,
2013-12-05 07:36:00,42.9,36.8,29.43,NNE,22,5.0,20.0,79,0.00,,,0.00,Weather View 32 v70,2013-12-05 12:36:00,
2013-12-05 07:41:00,41.4,36.0,29.43,NNW,337,6.0,20.0,81,0.00,,,0.00,Weather View 32 v70,2013-12-05 12:41:00,
2013-12-05 07:46:00,41.5,37.6,29.44,North,360,0.0,19.0,86,0.00,,,0.00,Weather View 32 v70,2013-12-05 12:46:00,
2013-12-05 07:51:00,41.4,36.9,29.44,NE,45,1.0,19.0,84,0.00,,,0.00,Weather View 32 v70,2013-12-05 12:51:00,
2013-12-05 07:56:00,40.8,36.3,29.44,ENE,67,1.0,19.0,84,0.00,,,0.00,Weather View 32 v70,2013-12-05 12:56:00,
2013-12-05 08:01:00,41.2,39.3,29.44,ESE,112,0.0,14.0,93,0.00,,,0.00,Weather View 32 v70,2013-12-05 13:01:00,
2013-12-05 08:06:00,42.2,39.2,29.44,SSE,157,0.0,14.0,89,0.00,,,0.00,Weather View 32 v70,2013-12-05 13:06:00,
2013-12-05 08:11:00,43.1,40.1,29.42,WSW,247,9.0,14.0,89,0.00,,,0.00,Weather View 32 v70,2013-12-05 13:11:00,
2013-12-05 08:16:00,44.2,42.0,29.42,SE,135,4.0,15.0,92,0.00,,,0.00,Weather View 32 v70,2013-12-05 13:16:00,
2013-12-05 08:21:00,44.7,42.2,29.42,WNW,292,1.0,15.0,91,0.00,,,0.00,Weather View 32 v70,2013-12-05 13:21:00,
2013-12-05 08:26:00,44.9,42.1,29.41,South,180,8.0,23.0,90,0.00,,,0.00,Weather View 32 v70,2013-12-05 13:26:00,
2013-12-05 08:31:00,45.2,42.1,29.41,South,180,6.0,23.0,89,0.00,,,0.00,Weather View 32 v70,2013-12-05 13:31:00,
2013-12-05 08:36:00,45.4,42.3,29.41,WSW,247,2.0,23.0,89,0.00,,,0.00,Weather View 32 v70,2013-12-05 13:36:00,
2013-12-05 08:41:00,45.7,42.9,29.41,WSW,247,11.0,23.0,90,0.00,,,0.00,Weather View 32 v70,2013-12-05 13:41:00,
2013-12-05 08:46:00,45.8,43.0,29.41,SW,225,7.0,23.0,90,0.00,,,0.00,Weather View 32 v70,2013-12-05 13:46:00,
2013-12-05 08:51:00,45.7,42.3,29.41,South,180,10.0,23.0,88,0.00,,,0.00,Weather View 32 v70,2013-12-05 13:51:00,
2013-12-05 08:56:00,45.7,42.0,29.41,SW,225,6.0,23.0,87,0.00,,,0.00,Weather View 32 v70,2013-12-05 13:56:00,
2013-12-05 09:01:00,45.7,42.0,29.42,West,270,8.0,23.0,87,0.00,,,0.00,Weather View 32 v70,2013-12-05 14:01:00,
2013-12-05 09:06:00,45.7,42.0,29.42,South,180,10.0,23.0,87,0.00,,,0.00,Weather View 32 v70,2013-12-05 14:06:00,
2013-12-05 09:12:00,45.4,42.0,29.41,South,180,9.0,23.0,88,0.00,,,0.00,Weather View 32 v70,2013-12-05 14:12:00,
2013-12-05 09:17:00,45.3,42.5,29.41,WSW,247,11.0,23.0,90,0.00,,,0.00,Weather View 32 v70,2013-12-05 14:17:00,
2013-12-05 09:22:00,45.2,43.3,29.41,SW,225,10.0,23.0,93,0.00,,,0.00,Weather View 32 v70,2013-12-05 14:22:00,
2013-12-05 09:27:00,45.3,43.4,29.41,WSW,247,7.0,23.0,93,0.00,,,0.00,Weather View 32 v70,2013-12-05 14:27:00,
2013-12-05 09:32:00,45.4,42.9,29.41,South,180,7.0,19.0,91,0.00,,,0.00,Weather View 32 v70,2013-12-05 14:32:00,
2013-12-05 09:37:00,45.4,42.6,29.41,WSW,247,6.0,19.0,90,0.00,,,0.00,Weather View 32 v70,2013-12-05 14:37:00,
2013-12-05 09:42:00,45.6,42.8,29.41,WSW,247,4.0,19.0,90,0.00,,,0.00,Weather View 32 v70,2013-12-05 14:42:00,
2013-12-05 09:47:00,45.4,42.3,29.41,WSW,247,7.0,19.0,89,0.00,,,0.00,Weather View 32 v70,2013-12-05 14:47:00,
2013-12-05 09:52:00,45.3,42.0,29.41,WSW,247,9.0,19.0,88,0.00,,,0.00,Weather View 32 v70,2013-12-05 14:52:00,
2013-12-05 09:57:00,45.4,42.0,29.41,WSW,247,9.0,19.0,88,0.00,,,0.00,Weather View 32 v70,2013-12-05 14:57:00,
2013-12-05 10:02:00,45.7,42.3,29.41,SSW,202,9.0,18.0,88,0.00,,,0.00,Weather View 32 v70,2013-12-05 15:02:00,
2013-12-05 10:07:00,46.0,42.3,29.41,SW,225,5.0,19.0,87,0.00,,,0.00,Weather View 32 v70,2013-12-05 15:07:00,
2013-12-05 10:12:00,46.1,42.4,29.41,SW,225,6.0,19.0,87,0.00,,,0.00,Weather View 32 v70,2013-12-05 15:12:00,
2013-12-05 10:17:00,46.4,42.7,29.41,SSW,202,6.0,19.0,87,0.00,,,0.00,Weather View 32 v70,2013-12-05 15:17:00,
2013-12-05 10:22:00,46.6,42.3,29.41,WSW,247,7.0,19.0,85,0.00,,,0.00,Weather View 32 v70,2013-12-05 15:22:00,
2013-12-05 10:27:00,46.4,42.1,29.41,SW,225,13.0,19.0,85,0.00,,,0.00,Weather View 32 v70,2013-12-05 15:27:00,
2013-12-05 10:32:00,46.4,42.1,29.40,SW,225,7.0,20.0,85,0.00,,,0.00,Weather View 32 v70,2013-12-05 15:32:00,
2013-12-05 10:37:00,46.6,42.6,29.40,SSW,202,10.0,20.0,86,0.00,,,0.00,Weather View 32 v70,2013-12-05 15:37:00,
2013-12-05 10:42:00,46.7,43.0,29.40,South,180,9.0,20.0,87,0.00,,,0.00,Weather View 32 v70,2013-12-05 15:42:00,
2013-12-05 10:47:00,46.9,43.2,29.38,WSW,247,7.0,20.0,87,0.00,,,0.00,Weather View 32 v70,2013-12-05 15:47:00,
2013-12-05 10:52:00,46.9,43.5,29.39,SW,225,7.0,20.0,88,0.00,,,0.00,Weather View 32 v70,2013-12-05 15:52:00,
2013-12-05 10:57:00,46.7,43.9,29.39,SSW,202,10.0,20.0,90,0.00,,,0.00,Weather View 32 v70,2013-12-05 15:57:00,
2013-12-05 11:02:00,46.4,43.0,29.38,South,180,12.0,20.0,88,0.00,,,0.00,Weather View 32 v70,2013-12-05 16:02:00,
2013-12-05 11:07:00,46.3,43.5,29.37,SSW,202,5.0,20.0,90,0.00,,,0.00,Weather View 32 v70,2013-12-05 16:07:00,
2013-12-05 11:12:00,46.4,44.2,29.36,SSE,157,1.0,20.0,92,0.00,,,0.00,Weather View 32 v70,2013-12-05 16:12:00,
2013-12-05 11:17:00,46.6,44.1,29.35,WSW,247,11.0,20.0,91,0.00,,,0.00,Weather View 32 v70,2013-12-05 16:17:00,
2013-12-05 11:22:00,46.7,45.1,29.36,WSW,247,6.0,20.0,94,0.00,,,0.00,Weather View 32 v70,2013-12-05 16:22:00,
2013-12-05 11:27:00,46.5,44.6,29.36,WSW,247,9.0,20.0,93,0.00,,,0.00,Weather View 32 v70,2013-12-05 16:27:00,
2013-12-05 11:32:00,46.4,44.5,29.35,WSW,247,8.0,20.0,93,0.00,,,0.00,Weather View 32 v70,2013-12-05 16:32:00,
2013-12-05 11:37:00,46.6,45.0,29.35,WSW,247,7.0,20.0,94,0.00,,,0.00,Weather View 32 v70,2013-12-05 16:37:00,
2013-12-05 11:42:00,46.8,44.6,29.36,SW,225,13.0,20.0,92,0.00,,,0.00,Weather View 32 v70,2013-12-05 16:42:00,
2013-12-05 11:47:00,46.8,44.6,29.36,SSE,157,8.0,18.0,92,0.00,,,0.00,Weather View 32 v70,2013-12-05 16:47:00,
2013-12-05 11:53:00,46.8,44.9,29.35,SW,225,14.0,18.0,93,0.00,,,0.00,Weather View 32 v70,2013-12-05 16:53:00,
2013-12-05 11:58:00,47.2,45.0,29.35,SW,225,10.0,19.0,92,0.00,,,0.00,Weather View 32 v70,2013-12-05 16:58:00,
2013-12-05 12:03:00,47.3,45.1,29.35,SSW,202,15.0,19.0,92,0.00,,,0.00,Weather View 32 v70,2013-12-05 17:03:00,
2013-12-05 12:08:00,47.3,45.4,29.35,SE,135,10.0,19.0,93,0.00,,,0.00,Weather View 32 v70,2013-12-05 17:08:00,
2013-12-05 12:13:00,47.6,46.0,29.34,South,180,7.0,20.0,94,0.00,,,0.00,Weather View 32 v70,2013-12-05 17:13:00,
2013-12-05 12:18:00,47.8,46.2,29.33,WSW,247,0.0,20.0,94,0.00,,,0.00,Weather View 32 v70,2013-12-05 17:18:00,
2013-12-05 12:23:00,48.3,46.4,29.33,SSE,157,0.0,22.0,93,0.00,,,0.00,Weather View 32 v70,2013-12-05 17:23:00,
2013-12-05 12:28:00,48.6,46.4,29.33,SSW,202,3.0,22.0,92,0.00,,,0.00,Weather View 32 v70,2013-12-05 17:28:00,
2013-12-05 12:33:00,48.6,46.4,29.33,SSW,202,7.0,22.0,92,0.00,,,0.00,Weather View 32 v70,2013-12-05 17:33:00,
2013-12-05 12:38:00,48.7,46.5,29.33,SSE,157,7.0,22.0,92,0.00,,,0.00,Weather View 32 v70,2013-12-05 17:38:00,
2013-12-05 12:43:00,48.6,46.4,29.33,SSE,157,0.0,22.0,92,0.00,,,0.00,Weather View 32 v70,2013-12-05 17:43:00,
2013-12-05 12:48:00,48.8,46.6,29.32,South,180,9.0,22.0,92,0.00,,,0.00,Weather View 32 v70,2013-12-05 17:48:00,
2013-12-05 12:53:00,49.0,46.8,29.32,WSW,247,6.0,22.0,92,0.00,,,0.00,Weather View 32 v70,2013-12-05 17:53:00,
2013-12-05 12:58:00,49.1,46.9,29.31,SSE,157,0.0,22.0,92,0.00,,,0.00,Weather View 32 v70,2013-12-05 17:58:00,
2013-12-05 13:03:00,49.2,47.0,29.32,SSW,202,9.0,22.0,92,0.00,,,0.00,Weather View 32 v70,2013-12-05 18:03:00,
2013-12-05 13:08:00,49.4,46.9,29.32,SSW,202,5.0,22.0,91,0.00,,,0.00,Weather View 32 v70,2013-12-05 18:08:00,
2013-12-05 13:13:00,49.5,47.0,29.32,South,180,0.0,22.0,91,0.00,,,0.00,Weather View 32 v70,2013-12-05 18:13:00,
2013-12-05 13:18:00,49.6,47.4,29.32,SE,135,4.0,22.0,92,0.00,,,0.00,Weather View 32 v70,2013-12-05 18:18:00,
2013-12-05 13:23:00,49.7,47.5,29.32,SE,135,0.0,22.0,92,0.00,,,0.00,Weather View 32 v70,2013-12-05 18:23:00,
2013-12-05 13:28:00,49.7,47.5,29.33,SSE,157,15.0,22.0,92,0.00,,,0.00,Weather View 32 v70,2013-12-05 18:28:00,
2013-12-05 13:33:00,49.7,48.0,29.32,SSE,157,7.0,19.0,94,0.00,,,0.00,Weather View 32 v70,2013-12-05 18:33:00,
2013-12-05 13:38:00,49.7,48.3,29.31,East,90,3.0,19.0,95,0.00,,,0.00,Weather View 32 v70,2013-12-05 18:38:00,
2013-12-05 13:43:00,49.6,47.9,29.31,ENE,67,6.0,19.0,94,0.00,,,0.00,Weather View 32 v70,2013-12-05 18:43:00,
2013-12-05 13:48:00,49.5,47.8,29.32,SSE,157,7.0,18.0,94,0.00,,,0.00,Weather View 32 v70,2013-12-05 18:48:00,
2013-12-05 13:53:00,49.6,48.2,29.32,ESE,112,7.0,18.0,95,0.00,,,0.00,Weather View 32 v70,2013-12-05 18:53:00,
2013-12-05 13:58:00,49.7,48.3,29.32,South,180,5.0,18.0,95,0.00,,,0.00,Weather View 32 v70,2013-12-05 18:58:00,
2013-12-05 14:03:00,49.8,48.4,29.32,East,90,6.0,18.0,95,0.00,,,0.00,Weather View 32 v70,2013-12-05 19:03:00,
2013-12-05 14:08:00,49.8,48.7,29.32,SE,135,3.0,18.0,96,0.00,,,0.00,Weather View 32 v70,2013-12-05 19:08:00,
2013-12-05 14:13:00,49.8,48.7,29.31,SSE,157,1.0,18.0,96,0.00,,,0.00,Weather View 32 v70,2013-12-05 19:13:00,
2013-12-05 14:18:00,49.8,48.7,29.31,SE,135,4.0,18.0,96,0.00,,,0.00,Weather View 32 v70,2013-12-05 19:18:00,
2013-12-05 14:23:00,49.9,48.8,29.31,SE,135,8.0,18.0,96,0.00,,,0.00,Weather View 32 v70,2013-12-05 19:23:00,
2013-12-05 14:28:00,50.0,48.6,29.32,ESE,112,7.0,18.0,95,0.00,,,0.00,Weather View 32 v70,2013-12-05 19:28:00,
2013-12-05 14:33:00,50.0,48.6,29.31,SSE,157,8.0,18.0,95,0.00,,,0.00,Weather View 32 v70,2013-12-05 19:33:00,
2013-12-05 14:38:00,50.1,48.7,29.31,SSE,157,2.0,18.0,95,0.00,,,0.00,Weather View 32 v70,2013-12-05 19:38:00,
2013-12-05 14:44:00,50.1,48.7,29.31,East,90,10.0,18.0,95,0.00,,,0.00,Weather View 32 v70,2013-12-05 19:44:00,
2013-12-05 14:49:00,50.2,49.1,29.31,SE,135,5.0,16.0,96,0.00,,,0.00,Weather View 32 v70,2013-12-05 19:49:00,
2013-12-05 14:54:00,50.4,49.3,29.31,SE,135,1.0,16.0,96,0.00,,,0.00,Weather View 32 v70,2013-12-05 19:54:00,
2013-12-05 14:59:00,50.6,49.5,29.31,ESE,112,0.0,16.0,96,0.00,,,0.00,Weather View 32 v70,2013-12-05 19:59:00,
2013-12-05 15:04:00,50.6,49.5,29.31,ESE,112,1.0,16.0,96,0.00,,,0.00,Weather View 32 v70,2013-12-05 20:04:00,
2013-12-05 15:09:00,50.6,49.5,29.31,East,90,1.0,16.0,96,0.00,,,0.00,Weather View 32 v70,2013-12-05 20:09:00,
2013-12-05 15:14:00,50.4,49.3,29.31,East,90,2.0,16.0,96,0.00,,,0.00,Weather View 32 v70,2013-12-05 20:14:00,
2013-12-05 15:19:00,50.6,49.2,29.31,East,90,4.0,16.0,95,0.00,,,0.00,Weather View 32 v70,2013-12-05 20:19:00,
2013-12-05 15:24:00,50.3,48.9,29.30,SSE,157,2.0,16.0,95,0.00,,,0.00,Weather View 32 v70,2013-12-05 20:24:00,
2013-12-05 15:29:00,50.2,48.8,29.31,SSE,157,9.0,16.0,95,0.00,,,0.00,Weather View 32 v70,2013-12-05 20:29:00,
2013-12-05 15:34:00,50.1,48.7,29.31,East,90,6.0,15.0,95,0.00,,,0.00,Weather View 32 v70,2013-12-05 20:34:00,
2013-12-05 15:39:00,50.1,49.0,29.31,East,90,12.0,15.0,96,0.00,,,0.00,Weather View 32 v70,2013-12-05 20:39:00,
2013-12-05 15:44:00,50.3,49.2,29.31,ESE,112,3.0,15.0,96,0.00,,,0.00,Weather View 32 v70,2013-12-05 20:44:00,
2013-12-05 15:49:00,50.3,49.2,29.30,ENE,67,4.0,15.0,96,0.00,,,0.00,Weather View 32 v70,2013-12-05 20:49:00,
2013-12-05 15:54:00,50.1,49.3,29.30,ESE,112,6.0,15.0,97,0.00,,,0.00,Weather View 32 v70,2013-12-05 20:54:00,
2013-12-05 15:59:00,50.3,49.2,29.30,ESE,112,6.0,15.0,96,0.00,,,0.00,Weather View 32 v70,2013-12-05 20:59:00,
2013-12-05 16:04:00,50.3,49.5,29.30,SSE,157,6.0,15.0,97,0.00,,,0.00,Weather View 32 v70,2013-12-05 21:04:00,
2013-12-05 16:09:00,50.4,49.6,29.30,SE,135,2.0,15.0,97,0.00,,,0.00,Weather View 32 v70,2013-12-05 21:09:00,
2013-12-05 16:14:00,50.4,49.6,29.30,East,90,5.0,15.0,97,0.00,,,0.00,Weather View 32 v70,2013-12-05 21:14:00,
2013-12-05 16:19:00,50.4,49.9,29.31,ESE,112,5.0,15.0,98,0.00,,,0.00,Weather View 32 v70,2013-12-05 21:19:00,
2013-12-05 16:24:00,50.7,50.2,29.30,East,90,5.0,15.0,98,0.00,,,0.00,Weather View 32 v70,2013-12-05 21:24:00,
2013-12-05 16:29:00,51.1,50.6,29.31,SSW,202,6.0,15.0,98,0.00,,,0.00,Weather View 32 v70,2013-12-05 21:29:00,
2013-12-05 16:34:00,51.3,50.8,29.30,SSW,202,7.0,14.0,98,0.00,,,0.00,Weather View 32 v70,2013-12-05 21:34:00,
2013-12-05 16:39:00,51.4,50.9,29.30,ENE,67,7.0,14.0,98,0.00,,,0.00,Weather View 32 v70,2013-12-05 21:39:00,
2013-12-05 16:44:00,51.4,50.9,29.31,NNE,22,0.0,14.0,98,0.00,,,0.00,Weather View 32 v70,2013-12-05 21:44:00,
2013-12-05 16:49:00,51.2,50.4,29.31,East,90,6.0,14.0,97,0.00,,,0.00,Weather View 32 v70,2013-12-05 21:49:00,
2013-12-05 16:54:00,51.0,50.5,29.31,East,90,8.0,14.0,98,0.00,,,0.00,Weather View 32 v70,2013-12-05 21:54:00,
2013-12-05 16:59:00,50.9,50.4,29.31,ENE,67,7.0,14.0,98,0.00,,,0.00,Weather View 32 v70,2013-12-05 21:59:00,
2013-12-05 17:04:00,51.0,50.5,29.31,ENE,67,8.0,14.0,98,0.00,,,0.00,Weather View 32 v70,2013-12-05 22:04:00,
2013-12-05 17:09:00,51.0,50.5,29.31,ESE,112,5.0,14.0,98,0.00,,,0.00,Weather View 32 v70,2013-12-05 22:09:00,
2013-12-05 17:14:00,51.1,50.6,29.31,ESE,112,9.0,14.0,98,0.00,,,0.00,Weather View 32 v70,2013-12-05 22:14:00,
2013-12-05 17:19:00,51.3,50.8,29.31,East,90,8.0,14.0,98,0.00,,,0.00,Weather View 32 v70,2013-12-05 22:19:00,
2013-12-05 17:24:00,51.3,50.8,29.31,SE,135,6.0,14.0,98,0.00,,,0.00,Weather View 32 v70,2013-12-05 22:24:00,
2013-12-05 17:30:00,51.3,50.8,29.31,East,90,3.0,14.0,98,0.00,,,0.00,Weather View 32 v70,2013-12-05 22:30:00,
2013-12-05 17:35:00,51.3,50.8,29.31,East,90,10.0,14.0,98,0.00,,,0.00,Weather View 32 v70,2013-12-05 22:35:00,
2013-12-05 17:40:00,51.2,50.7,29.31,ESE,112,6.0,14.0,98,0.00,,,0.00,Weather View 32 v70,2013-12-05 22:40:00,
2013-12-05 17:45:00,50.9,50.4,29.29,ESE,112,10.0,15.0,98,0.00,,,0.00,Weather View 32 v70,2013-12-05 22:45:00,
2013-12-05 17:50:00,50.8,50.3,29.27,SE,135,10.0,15.0,98,0.00,,,0.00,Weather View 32 v70,2013-12-05 22:50:00,
2013-12-05 17:55:00,50.8,50.3,29.28,ENE,67,1.0,17.0,98,0.00,,,0.00,Weather View 32 v70,2013-12-05 22:55:00,
2013-12-05 18:00:00,50.5,50.0,29.29,ESE,112,0.0,17.0,98,0.00,,,0.00,Weather View 32 v70,2013-12-05 23:00:00,
2013-12-05 18:05:00,50.7,50.2,29.30,ENE,67,0.0,17.0,98,0.00,,,0.00,Weather View 32 v70,2013-12-05 23:05:00,
2013-12-05 18:10:00,51.4,50.6,29.29,ESE,112,9.0,17.0,97,0.00,,,0.00,Weather View 32 v70,2013-12-05 23:10:00,
2013-12-05 18:15:00,52.0,51.2,29.30,East,90,2.0,17.0,97,0.00,,,0.00,Weather View 32 v70,2013-12-05 23:15:00,
2013-12-05 18:20:00,52.1,51.6,29.29,ENE,67,10.0,17.0,98,0.00,,,0.00,Weather View 32 v70,2013-12-05 23:20:00,
2013-12-05 18:25:00,52.0,51.5,29.30,ESE,112,9.0,17.0,98,0.00,,,0.00,Weather View 32 v70,2013-12-05 23:25:00,
2013-12-05 18:30:00,51.9,51.4,29.29,ESE,112,6.0,17.0,98,0.00,,,0.00,Weather View 32 v70,2013-12-05 23:30:00,
2013-12-05 18:35:00,51.9,51.4,29.29,SSE,157,4.0,17.0,98,0.00,,,0.00,Weather View 32 v70,2013-12-05 23:35:00,
2013-12-05 18:40:00,52.0,51.5,29.29,ESE,112,12.0,17.0,98,0.00,,,0.00,Weather View 32 v70,2013-12-05 23:40:00,
2013-12-05 18:45:00,52.0,51.5,29.28,ESE,112,9.0,17.0,98,0.00,,,0.00,Weather View 32 v70,2013-12-05 23:45:00,
2013-12-05 18:50:00,51.9,51.4,29.29,ESE,112,10.0,17.0,98,0.00,,,0.00,Weather View 32 v70,2013-12-05 23:50:00,
2013-12-05 18:55:00,52.0,51.5,29.30,SE,135,6.0,17.0,98,0.00,,,0.00,Weather View 32 v70,2013-12-05 23:55:00,
2013-12-05 19:00:00,52.2,51.4,29.29,SE,135,1.0,17.0,97,0.00,,,0.00,Weather View 32 v70,2013-12-06 00:00:00,
2013-12-05 19:05:00,52.3,51.5,29.29,ESE,112,8.0,15.0,97,0.00,,,0.00,Weather View 32 v70,2013-12-06 00:05:00,
2013-12-05 19:10:00,52.4,51.6,29.29,ESE,112,3.0,15.0,97,0.00,,,0.00,Weather View 32 v70,2013-12-06 00:10:00,
2013-12-05 19:15:00,52.4,51.6,29.29,ESE,112,7.0,15.0,97,0.00,,,0.00,Weather View 32 v70,2013-12-06 00:15:00,
2013-12-05 19:20:00,52.4,51.6,29.29,SSE,157,8.0,15.0,97,0.00,,,0.00,Weather View 32 v70,2013-12-06 00:20:00,
2013-12-05 19:25:00,52.4,51.6,29.29,ESE,112,9.0,15.0,97,0.00,,,0.00,Weather View 32 v70,2013-12-06 00:25:00,
2013-12-05 19:30:00,52.7,51.9,29.28,ESE,112,3.0,15.0,97,0.00,,,0.00,Weather View 32 v70,2013-12-06 00:30:00,
2013-12-05 19:35:00,52.7,51.9,29.29,ENE,67,3.0,15.0,97,0.00,,,0.00,Weather View 32 v70,2013-12-06 00:35:00,
2013-12-05 19:40:00,52.7,51.9,29.28,East,90,8.0,15.0,97,0.00,,,0.00,Weather View 32 v70,2013-12-06 00:40:00,
2013-12-05 19:45:00,52.7,51.9,29.27,ENE,67,1.0,15.0,97,0.00,,,0.00,Weather View 32 v70,2013-12-06 00:45:00,
2013-12-05 19:50:00,52.7,51.9,29.27,ESE,112,0.0,15.0,97,0.00,,,0.00,Weather View 32 v70,2013-12-06 00:50:00,
2013-12-05 19:55:00,52.7,51.9,29.27,East,90,0.0,15.0,97,0.00,,,0.00,Weather View 32 v70,2013-12-06 00:55:00,
2013-12-05 20:00:00,52.7,51.9,29.28,NNW,337,2.0,15.0,97,0.00,,,0.00,Weather View 32 v70,2013-12-06 01:00:00,
2013-12-05 20:05:00,52.6,51.8,29.27,ENE,67,7.0,14.0,97,0.00,,,0.00,Weather View 32 v70,2013-12-06 01:05:00,
2013-12-05 20:10:00,52.7,51.6,29.28,ESE,112,0.0,14.0,96,0.00,,,0.00,Weather View 32 v70,2013-12-06 01:10:00,
2013-12-05 20:15:00,52.7,51.6,29.27,SE,135,7.0,14.0,96,0.00,,,0.00,Weather View 32 v70,2013-12-06 01:15:00,
2013-12-05 20:20:00,52.7,51.6,29.27,ESE,112,8.0,14.0,96,0.00,,,0.00,Weather View 32 v70,2013-12-06 01:20:00,
2013-12-05 20:25:00,52.8,51.7,29.26,East,90,10.0,15.0,96,0.00,,,0.00,Weather View 32 v70,2013-12-06 01:25:00,
2013-12-05 20:30:00,52.8,51.7,29.27,East,90,8.0,16.0,96,0.00,,,0.00,Weather View 32 v70,2013-12-06 01:30:00,
2013-12-05 20:35:00,52.8,51.7,29.27,SSE,157,5.0,16.0,96,0.00,,,0.00,Weather View 32 v70,2013-12-06 01:35:00,
2013-12-05 20:40:00,52.9,51.8,29.27,ESE,112,12.0,16.0,96,0.00,,,0.00,Weather View 32 v70,2013-12-06 01:40:00,
2013-12-05 20:45:00,52.9,51.8,29.27,SSE,157,7.0,19.0,96,0.00,,,0.00,Weather View 32 v70,2013-12-06 01:45:00,
2013-12-05 20:50:00,53.0,51.9,29.26,SSE,157,3.0,19.0,96,0.00,,,0.00,Weather View 32 v70,2013-12-06 01:50:00,
2013-12-05 20:55:00,53.1,52.0,29.27,SE,135,7.0,19.0,96,0.00,,,0.00,Weather View 32 v70,2013-12-06 01:55:00,
2013-12-05 21:00:00,53.1,52.0,29.27,SE,135,6.0,19.0,96,0.00,,,0.00,Weather View 32 v70,2013-12-06 02:00:00,
2013-12-05 21:05:00,53.3,52.2,29.27,ESE,112,9.0,19.0,96,0.00,,,0.00,Weather View 32 v70,2013-12-06 02:05:00,
2013-12-05 21:10:00,53.4,52.3,29.28,SE,135,12.0,19.0,96,0.00,,,0.00,Weather View 32 v70,2013-12-06 02:10:00,
2013-12-05 21:15:00,53.4,52.3,29.28,South,180,7.0,19.0,96,0.00,,,0.00,Weather View 32 v70,2013-12-06 02:15:00,
2013-12-05 21:20:00,53.6,52.5,29.28,SE,135,10.0,19.0,96,0.00,,,0.00,Weather View 32 v70,2013-12-06 02:20:00,
2013-12-05 21:25:00,53.6,52.8,29.27,ENE,67,7.0,19.0,97,0.00,,,0.00,Weather View 32 v70,2013-12-06 02:25:00,
2013-12-05 21:30:00,53.6,52.5,29.28,SSW,202,6.0,19.0,96,0.00,,,0.00,Weather View 32 v70,2013-12-06 02:30:00,
2013-12-05 21:35:00,53.6,52.5,29.28,East,90,6.0,19.0,96,0.00,,,0.00,Weather View 32 v70,2013-12-06 02:35:00,
2013-12-05 21:40:00,53.6,52.5,29.28,SSE,157,10.0,19.0,96,0.00,,,0.00,Weather View 32 v70,2013-12-06 02:40:00,
2013-12-05 21:45:00,53.7,52.6,29.28,SSE,157,10.0,20.0,96,0.00,,,0.00,Weather View 32 v70,2013-12-06 02:45:00,
2013-12-05 21:50:00,53.8,52.7,29.28,SSE,157,8.0,20.0,96,0.00,,,0.00,Weather View 32 v70,2013-12-06 02:50:00,
2013-12-05 21:55:00,53.8,52.7,29.28,ESE,112,11.0,20.0,96,0.00,,,0.00,Weather View 32 v70,2013-12-06 02:55:00,
2013-12-05 22:00:00,53.9,52.8,29.28,SSE,157,7.0,20.0,96,0.00,,,0.00,Weather View 32 v70,2013-12-06 03:00:00,
2013-12-05 22:05:00,53.9,52.8,29.27,ESE,112,9.0,20.0,96,0.00,,,0.00,Weather View 32 v70,2013-12-06 03:05:00,
2013-12-05 22:10:00,53.9,52.8,29.27,SE,135,6.0,20.0,96,0.00,,,0.00,Weather View 32 v70,2013-12-06 03:10:00,
2013-12-05 22:15:00,53.8,52.7,29.27,ESE,112,10.0,20.0,96,0.00,,,0.00,Weather View 32 v70,2013-12-06 03:15:00,
2013-12-05 22:20:00,53.8,52.7,29.27,SE,135,9.0,20.0,96,0.00,,,0.00,Weather View 32 v70,2013-12-06 03:20:00,
2013-12-05 22:25:00,53.8,52.7,29.28,SE,135,7.0,20.0,96,0.00,,,0.00,Weather View 32 v70,2013-12-06 03:25:00,
2013-12-05 22:30:00,53.9,52.8,29.27,SSE,157,13.0,20.0,96,0.00,,,0.00,Weather View 32 v70,2013-12-06 03:30:00,
2013-12-05 22:35:00,54.0,52.6,29.28,SSE,157,10.0,20.0,95,0.00,,,0.00,Weather View 32 v70,2013-12-06 03:35:00,
2013-12-05 22:40:00,54.1,52.7,29.28,SSE,157,12.0,20.0,95,0.00,,,0.00,Weather View 32 v70,2013-12-06 03:40:00,
2013-12-05 22:45:00,54.1,52.7,29.27,ESE,112,7.0,20.0,95,0.00,,,0.00,Weather View 32 v70,2013-12-06 03:45:00,
2013-12-05 22:50:00,54.1,52.7,29.28,SSE,157,12.0,19.0,95,0.00,,,0.00,Weather View 32 v70,2013-12-06 03:50:00,
2013-12-05 22:55:00,54.1,52.7,29.28,ESE,112,11.0,19.0,95,0.00,,,0.00,Weather View 32 v70,2013-12-06 03:55:00,
2013-12-05 23:00:00,54.1,52.7,29.29,SSE,157,9.0,19.0,95,0.00,,,0.00,Weather View 32 v70,2013-12-06 04:00:00,
2013-12-05 23:05:00,54.0,52.6,29.29,SSE,157,7.0,19.0,95,0.00,,,0.00,Weather View 32 v70,2013-12-06 04:05:00,
2013-12-05 23:10:00,53.9,52.8,29.30,SSE,157,3.0,19.0,96,0.00,,,0.00,Weather View 32 v70,2013-12-06 04:10:00,
2013-12-05 23:15:00,53.8,52.7,29.31,SSW,202,6.0,19.0,96,0.00,,,0.00,Weather View 32 v70,2013-12-06 04:15:00,
2013-12-05 23:20:00,53.6,52.5,29.31,SSW,202,10.0,19.0,96,0.00,,,0.00,Weather View 32 v70,2013-12-06 04:20:00,
2013-12-05 23:25:00,53.4,52.3,29.32,SSW,202,13.0,19.0,96,0.00,,,0.00,Weather View 32 v70,2013-12-06 04:25:00,
2013-12-05 23:30:00,53.4,52.3,29.32,SE,135,5.0,19.0,96,0.00,,,0.00,Weather View 32 v70,2013-12-06 04:30:00,
2013-12-05 23:35:00,53.3,52.5,29.31,SSW,202,7.0,19.0,97,0.00,,,0.00,Weather View 32 v70,2013-12-06 04:35:00,
2013-12-05 23:40:00,53.2,52.6,29.31,South,180,9.0,19.0,98,0.00,,,0.00,Weather View 32 v70,2013-12-06 04:40:00,
2013-12-05 23:45:00,53.0,51.6,29.31,SSE,157,6.0,19.0,95,0.00,,,0.00,Weather View 32 v70,2013-12-06 04:45:00,
2013-12-05 23:50:00,52.8,49.0,29.31,SSE,157,9.0,19.0,87,0.00,,,0.00,Weather View 32 v70,2013-12-06 04:50:00,
2013-12-05 23:55:00,52.7,49.2,29.31,SSW,202,12.0,19.0,88,0.00,,,0.00,Weather View 32 v70,2013-12-06 04:55:00,